Time;durP1;ratioP1;P1;durP2;ratioP2;P2;SDS_P1;SDS_P2;PMS_P1;PMS_P2;Temp;Humidity;BMP_temperature;BMP_pressure;BME280_temperature;BME280_humidity;BME280_pressure;Samples;Min_cycle;Max_cycle;Signal;HPM_P1;HPM_P2
2023/06/12 00:02:09;;;;;;;35.40;21.30;;;;;;;;;;4959829;28;20097;-63
2023/06/12 00:04:56;;;;;;;35.60;21.30;;;;;;;;;;4924180;29;20613;-61
2023/06/12 00:07:23;;;;;;;34.45;22.08;;;;;;;;;;4922632;28;20031;-62
2023/06/12 00:09:49;;;;;;;32.60;20.70;;;;;;;;;;4926259;29;20051;-62
2023/06/12 00:12:16;;;;;;;32.28;21.65;;;;;;;;;;4923293;29;20043;-60
2023/06/12 00:14:42;;;;;;;33.53;21.58;;;;;;;;;;4924816;28;20512;-62
2023/06/12 00:17:09;;;;;;;32.80;20.98;;;;;;;;;;4918356;29;20195;-62
2023/06/12 00:19:38;;;;;;;30.15;20.13;;;;;;;;;;4910560;29;20154;-62
2023/06/12 00:22:05;;;;;;;30.38;20.10;;;;;;;;;;4921969;29;20107;-64
2023/06/12 00:24:32;;;;;;;35.65;20.85;;;;;;;;;;4923650;28;20102;-62
2023/06/12 00:26:59;;;;;;;29.25;20.27;;;;;;;;;;4926241;29;20119;-62
2023/06/12 00:29:25;;;;;;;32.55;19.52;;;;;;;;;;4924296;28;20047;-62
2023/06/12 00:31:52;;;;;;;32.38;19.25;;;;;;;;;;4926906;29;20032;-64
2023/06/12 00:34:20;;;;;;;28.65;18.77;;;;;;;;;;4932120;28;20036;-65
2023/06/12 00:36:47;;;;;;;29.17;19.02;;;;;;;;;;4926359;29;20099;-64
2023/06/12 00:39:13;;;;;;;28.25;17.80;;;;;;;;;;4926311;28;20048;-61
2023/06/12 00:41:40;;;;;;;30.63;17.80;;;;;;;;;;4934856;28;20722;-63
2023/06/12 00:44:07;;;;;;;24.33;17.00;;;;;;;;;;4970377;28;20054;-62
2023/06/12 00:46:33;;;;;;;28.17;16.90;;;;;;;;;;4965690;28;20063;-62
2023/06/12 00:49:01;;;;;;;25.95;16.88;;;;;;;;;;4965322;28;20043;-64
2023/06/12 00:51:28;;;;;;;25.45;16.73;;;;;;;;;;4954991;28;20415;-64
2023/06/12 00:53:56;;;;;;;26.48;15.43;;;;;;;;;;4959979;28;20046;-63
2023/06/12 00:56:23;;;;;;;26.92;15.90;;;;;;;;;;4962944;28;20185;-64
2023/06/12 00:58:52;;;;;;;23.17;14.93;;;;;;;;;;4972702;28;20045;-65
2023/06/12 01:01:36;;;;;;;26.52;16.15;;;;;;;;;;4964812;28;20074;-64
2023/06/12 01:04:03;;;;;;;24.35;15.65;;;;;;;;;;4970331;28;20556;-63
2023/06/12 01:06:36;;;;;;;24.85;15.98;;;;;;;;;;4945716;28;20126;-64
2023/06/12 01:09:03;;;;;;;;;;;;;;;;;;4961326;28;20042;-64
2023/06/12 01:11:30;;;;;;;24.00;15.60;;;;;;;;;;4961216;28;19917;-63
2023/06/12 01:13:57;;;;;;;23.50;15.65;;;;;;;;;;4962120;28;20050;-63
2023/06/12 01:16:23;;;;;;;27.13;16.10;;;;;;;;;;4961840;28;20031;-63
2023/06/12 01:18:50;;;;;;;25.77;15.30;;;;;;;;;;4947081;28;20042;-66
2023/06/12 01:21:22;;;;;;;23.70;14.57;;;;;;;;;;4962483;28;20713;-63
2023/06/12 01:23:49;;;;;;;23.27;15.00;;;;;;;;;;4956150;28;20102;-62
2023/06/12 01:26:17;;;;;;;22.05;13.77;;;;;;;;;;4943815;28;20039;-64
2023/06/12 01:28:52;;;;;;;26.48;14.65;;;;;;;;;;4944832;28;20100;-61
2023/06/12 01:31:27;;;;;;;22.42;15.27;;;;;;;;;;4952248;28;20039;-64
2023/06/12 01:34:02;;;;;;;27.52;14.60;;;;;;;;;;4947766;28;20050;-65
2023/06/12 01:36:32;;;;;;;23.08;14.70;;;;;;;;;;4954426;28;20058;-66
2023/06/12 01:39:00;;;;;;;23.02;13.85;;;;;;;;;;4951024;28;20054;-64
2023/06/12 01:41:28;;;;;;;21.67;12.95;;;;;;;;;;4947680;28;20044;-63
2023/06/12 01:44:16;;;;;;;22.15;14.27;;;;;;;;;;4962241;28;21777;-64
2023/06/12 01:46:45;;;;;;;23.52;13.73;;;;;;;;;;4936445;28;20114;-63
2023/06/12 01:49:11;;;;;;;24.50;13.48;;;;;;;;;;4944874;28;20047;-64
2023/06/12 01:51:38;;;;;;;20.67;12.68;;;;;;;;;;4940775;28;20047;-64
2023/06/12 01:54:05;;;;;;;16.55;11.38;;;;;;;;;;4960616;28;20098;-65
2023/06/12 01:56:32;;;;;;;23.88;12.55;;;;;;;;;;4967111;28;20070;-65
2023/06/12 01:58:59;;;;;;;19.73;11.23;;;;;;;;;;4964293;28;20035;-64
2023/06/12 02:01:26;;;;;;;19.45;11.55;;;;;;;;;;4963759;28;20036;-65
2023/06/12 02:03:53;;;;;;;18.38;10.80;;;;;;;;;;4965684;28;20128;-65
2023/06/12 02:06:20;;;;;;;18.08;9.80;;;;;;;;;;4967967;28;20034;-63
2023/06/12 02:08:46;;;;;;;20.45;10.60;;;;;;;;;;4957779;28;20031;-60
2023/06/12 02:11:14;;;;;;;18.08;9.55;;;;;;;;;;4966888;28;20059;-63
2023/06/12 02:13:40;;;;;;;16.10;9.07;;;;;;;;;;4966483;28;20034;-64
2023/06/12 02:16:08;;;;;;;19.83;10.40;;;;;;;;;;4970464;28;21828;-64
2023/06/12 02:18:34;;;;;;;15.52;9.15;;;;;;;;;;4968272;28;20096;-65
2023/06/12 02:21:21;;;;;;;15.35;8.75;;;;;;;;;;4945817;28;20039;-64
2023/06/12 02:23:47;;;;;;;12.43;7.35;;;;;;;;;;4942631;28;20047;-62
2023/06/12 02:26:16;;;;;;;14.23;7.95;;;;;;;;;;4949713;28;20165;-63
2023/06/12 02:28:43;;;;;;;12.27;7.60;;;;;;;;;;4953711;28;20054;-63
2023/06/12 02:31:11;;;;;;;14.00;6.68;;;;;;;;;;4953207;28;20043;-63
2023/06/12 02:33:38;;;;;;;13.35;7.35;;;;;;;;;;4950530;28;20043;-63
2023/06/12 02:36:07;;;;;;;12.85;6.68;;;;;;;;;;4950456;28;20035;-64
2023/06/12 02:38:34;;;;;;;13.57;6.90;;;;;;;;;;4949589;28;20135;-64
2023/06/12 02:41:01;;;;;;;12.68;5.70;;;;;;;;;;4939600;28;20059;-67
2023/06/12 02:43:27;;;;;;;10.93;5.32;;;;;;;;;;4929945;28;20110;-63
2023/06/12 02:46:14;;;;;;;10.18;4.97;;;;;;;;;;4932670;28;20043;-64
2023/06/12 02:48:40;;;;;;;8.38;4.20;;;;;;;;;;4950940;28;20373;-62
2023/06/12 02:51:07;;;;;;;8.77;4.28;;;;;;;;;;4957835;28;20047;-63
2023/06/12 02:53:34;;;;;;;9.27;4.88;;;;;;;;;;4968725;28;20034;-62
2023/06/12 02:56:01;;;;;;;8.32;4.20;;;;;;;;;;4962848;28;20091;-62
2023/06/12 02:58:28;;;;;;;8.85;4.53;;;;;;;;;;4961440;28;20066;-62
2023/06/12 03:00:56;;;;;;;10.68;4.72;;;;;;;;;;4964128;28;20161;-62
2023/06/12 03:03:25;;;;;;;9.68;4.53;;;;;;;;;;4961360;28;20038;-62
2023/06/12 03:05:51;;;;;;;11.20;4.93;;;;;;;;;;4960970;28;20054;-63
2023/06/12 03:08:18;;;;;;;9.38;5.15;;;;;;;;;;4963806;28;20156;-62
2023/06/12 03:10:45;;;;;;;10.65;5.45;;;;;;;;;;4959741;28;20039;-62
2023/06/12 03:13:15;;;;;;;8.18;4.90;;;;;;;;;;4959319;28;20043;-62
2023/06/12 03:15:41;;;;;;;12.93;5.55;;;;;;;;;;4959523;28;20548;-62
2023/06/12 03:18:08;;;;;;;11.93;5.53;;;;;;;;;;4962095;28;20038;-63
2023/06/12 03:20:34;;;;;;;14.70;5.80;;;;;;;;;;4960923;28;20253;-60
2023/06/12 03:23:06;;;;;;;12.52;5.97;;;;;;;;;;4966598;28;20049;-60
2023/06/12 03:25:32;;;;;;;10.27;5.43;;;;;;;;;;4979402;28;20054;-62
2023/06/12 03:27:59;;;;;;;11.52;5.65;;;;;;;;;;4979435;28;20041;-63
2023/06/12 03:30:25;;;;;;;12.02;5.35;;;;;;;;;;4978941;28;21775;-63
2023/06/12 03:32:52;;;;;;;12.80;5.55;;;;;;;;;;4981367;28;20766;-61
2023/06/12 03:35:20;;;;;;;12.48;5.95;;;;;;;;;;4980726;28;20034;-64
2023/06/12 03:37:46;;;;;;;12.45;5.93;;;;;;;;;;4979266;28;20038;-61
2023/06/12 03:40:13;;;;;;;12.10;5.43;;;;;;;;;;4982609;28;20053;-62
2023/06/12 03:42:40;;;;;;;11.77;5.93;;;;;;;;;;4977577;28;20098;-62
2023/06/12 03:45:07;;;;;;;13.48;5.40;;;;;;;;;;4982388;28;20071;-63
2023/06/12 03:47:33;;;;;;;10.52;5.40;;;;;;;;;;4981579;28;20185;-63
2023/06/12 03:50:01;;;;;;;14.10;6.07;;;;;;;;;;4980194;28;20055;-62
2023/06/12 03:52:27;;;;;;;15.20;6.07;;;;;;;;;;4979198;28;20066;-61
2023/06/12 03:54:54;;;;;;;13.75;6.07;;;;;;;;;;4979562;28;20709;-63
2023/06/12 03:57:21;;;;;;;10.88;5.50;;;;;;;;;;4974913;28;20690;-63
2023/06/12 03:59:47;;;;;;;16.15;5.78;;;;;;;;;;4979181;28;20042;-63
2023/06/12 04:02:14;;;;;;;12.40;6.35;;;;;;;;;;4980614;28;20042;-63
2023/06/12 04:04:41;;;;;;;14.05;6.53;;;;;;;;;;4978439;28;20050;-62
2023/06/12 04:07:07;;;;;;;12.45;6.15;;;;;;;;;;4981454;28;20767;-63
2023/06/12 04:09:34;;;;;;;15.52;6.90;;;;;;;;;;4980015;28;20058;-64
2023/06/12 04:12:02;;;;;;;13.57;6.07;;;;;;;;;;4964255;28;20030;-61
2023/06/12 04:14:29;;;;;;;14.55;7.13;;;;;;;;;;4975315;28;20560;-63
2023/06/12 04:16:57;;;;;;;17.90;7.53;;;;;;;;;;4977631;28;20042;-63
2023/06/12 04:19:24;;;;;;;12.80;7.10;;;;;;;;;;4977743;28;20077;-63
2023/06/12 04:21:51;;;;;;;12.82;6.88;;;;;;;;;;4980997;28;20034;-61
2023/06/12 04:24:22;;;;;;;13.02;6.82;;;;;;;;;;4979012;28;20852;-62
2023/06/12 04:27:09;;;;;;;13.52;7.25;;;;;;;;;;4937819;28;20082;-61
2023/06/12 04:29:42;;;;;;;15.43;7.35;;;;;;;;;;4954007;28;20043;-61
2023/06/12 04:32:09;;;;;;;;;;;;;;;;;;4953908;28;20560;-61
2023/06/12 04:34:43;;;;;;;16.48;7.50;;;;;;;;;;4952808;28;21809;-62
2023/06/12 04:37:18;;;;;;;21.60;7.80;;;;;;;;;;4933071;28;20451;-62
2023/06/12 04:39:48;;;;;;;15.23;7.18;;;;;;;;;;4934206;28;20769;-62
2023/06/12 04:42:16;;;;;;;14.90;7.80;;;;;;;;;;4934573;28;20043;-62
2023/06/12 04:44:46;;;;;;;13.90;7.90;;;;;;;;;;4934934;28;20162;-62
2023/06/12 04:47:14;;;;;;;17.95;8.60;;;;;;;;;;4934480;28;21110;-63
2023/06/12 04:49:45;;;;;;;12.93;7.60;;;;;;;;;;4933692;29;20594;-62
2023/06/12 04:52:17;;;;;;;15.20;7.75;;;;;;;;;;4928362;28;20118;-62
2023/06/12 04:54:44;;;;;;;16.75;7.80;;;;;;;;;;4934558;28;20405;-62
2023/06/12 04:57:16;;;;;;;15.23;8.60;;;;;;;;;;4935446;28;20063;-63
2023/06/12 04:59:44;;;;;;;16.98;8.18;;;;;;;;;;4955197;28;20073;-62
2023/06/12 05:02:14;;;;;;;18.45;8.55;;;;;;;;;;4954598;28;20043;-61
2023/06/12 05:04:41;;;;;;;15.50;8.02;;;;;;;;;;4949895;28;20103;-61
2023/06/12 05:07:19;;;;;;;17.52;8.25;;;;;;;;;;4956872;28;20139;-61
2023/06/12 05:09:45;;;;;;;16.52;8.48;;;;;;;;;;4980632;28;20038;-62
2023/06/12 05:12:12;;;;;;;14.48;8.07;;;;;;;;;;4981490;28;20031;-61
2023/06/12 05:14:40;;;;;;;20.27;7.40;;;;;;;;;;4980403;28;20059;-63
2023/06/12 05:17:07;;;;;;;18.00;8.25;;;;;;;;;;4984659;28;20031;-62
2023/06/12 05:19:33;;;;;;;15.23;7.45;;;;;;;;;;4984032;28;20092;-61
2023/06/12 05:22:00;;;;;;;15.73;7.93;;;;;;;;;;4982439;28;20061;-60
2023/06/12 05:24:26;;;;;;;18.00;8.55;;;;;;;;;;4980684;28;20057;-61
2023/06/12 05:26:53;;;;;;;16.50;8.05;;;;;;;;;;4980479;28;20042;-61
2023/06/12 05:29:20;;;;;;;19.45;8.50;;;;;;;;;;4979193;28;20860;-64
2023/06/12 05:31:46;;;;;;;18.50;8.65;;;;;;;;;;4980466;28;20467;-60
2023/06/12 05:34:13;;;;;;;12.82;7.85;;;;;;;;;;4980173;28;20043;-60
2023/06/12 05:36:40;;;;;;;13.18;7.97;;;;;;;;;;4981839;28;20102;-62
2023/06/12 05:39:06;;;;;;;14.98;8.38;;;;;;;;;;4981068;28;20046;-61
2023/06/12 05:41:33;;;;;;;16.35;8.13;;;;;;;;;;4976110;28;20156;-60
2023/06/12 05:44:00;;;;;;;18.45;8.13;;;;;;;;;;4982379;28;20064;-62
2023/06/12 05:46:26;;;;;;;14.13;7.93;;;;;;;;;;4979557;28;20053;-62
2023/06/12 05:48:57;;;;;;;20.13;8.43;;;;;;;;;;4984536;28;20376;-61
2023/06/12 05:51:25;;;;;;;18.08;8.20;;;;;;;;;;4982330;28;20034;-60
2023/06/12 05:53:52;;;;;;;13.52;7.55;;;;;;;;;;4979998;28;20134;-63
2023/06/12 05:56:18;;;;;;;12.48;6.82;;;;;;;;;;4965167;28;20486;-60
2023/06/12 05:58:45;;;;;;;16.55;7.75;;;;;;;;;;4977195;28;20050;-61
2023/06/12 06:01:16;;;;;;;14.25;7.43;;;;;;;;;;4979129;28;20161;-60
2023/06/12 06:03:46;;;;;;;15.32;8.25;;;;;;;;;;4976240;28;20056;-62
2023/06/12 06:06:13;;;;;;;20.08;7.88;;;;;;;;;;4978580;28;21709;-60
2023/06/12 06:08:40;;;;;;;12.80;7.22;;;;;;;;;;4980257;28;20050;-61
2023/06/12 06:11:07;;;;;;;13.77;7.07;;;;;;;;;;4978347;28;20069;-63
2023/06/12 06:13:33;;;;;;;13.35;7.38;;;;;;;;;;4981183;28;20034;-59
2023/06/12 06:16:02;;;;;;;13.68;7.65;;;;;;;;;;4985207;28;20094;-61
2023/06/12 06:18:29;;;;;;;14.95;7.00;;;;;;;;;;4984599;28;20052;-61
2023/06/12 06:20:56;;;;;;;17.83;7.38;;;;;;;;;;4983074;28;20038;-63
2023/06/12 06:23:22;;;;;;;17.65;7.25;;;;;;;;;;4984037;28;20160;-61
2023/06/12 06:25:49;;;;;;;16.90;7.53;;;;;;;;;;4961029;28;20075;-58
2023/06/12 06:28:16;;;;;;;14.10;7.10;;;;;;;;;;4964216;28;20038;-61
2023/06/12 06:30:43;;;;;;;14.70;7.78;;;;;;;;;;4959506;28;20046;-61
2023/06/12 06:33:10;;;;;;;16.27;7.30;;;;;;;;;;4963546;28;21046;-62
2023/06/12 06:35:36;;;;;;;15.30;7.50;;;;;;;;;;4964355;28;20043;-61
2023/06/12 06:38:03;;;;;;;12.82;7.50;;;;;;;;;;4968898;28;21037;-63
2023/06/12 06:40:31;;;;;;;14.18;6.72;;;;;;;;;;4968438;28;20174;-61
2023/06/12 06:42:58;;;;;;;17.15;7.60;;;;;;;;;;4970026;28;20073;-62
2023/06/12 06:45:25;;;;;;;15.95;7.57;;;;;;;;;;4968077;28;20055;-63
2023/06/12 06:47:51;;;;;;;13.95;7.22;;;;;;;;;;4969008;28;20061;-62
2023/06/12 06:50:18;;;;;;;15.93;6.57;;;;;;;;;;4965591;28;20035;-60
2023/06/12 06:52:45;;;;;;;14.13;6.95;;;;;;;;;;4952757;28;20043;-62
2023/06/12 06:55:11;;;;;;;13.63;6.88;;;;;;;;;;4968907;28;20130;-62
2023/06/12 06:57:38;;;;;;;12.82;6.57;;;;;;;;;;4967562;28;20506;-62
2023/06/12 07:00:06;;;;;;;12.65;6.88;;;;;;;;;;4969470;28;20046;-61
2023/06/12 07:02:33;;;;;;;15.85;6.85;;;;;;;;;;4971467;28;20101;-63
2023/06/12 07:04:59;;;;;;;11.93;6.45;;;;;;;;;;4984157;28;20636;-61
2023/06/12 07:07:26;;;;;;;10.68;5.75;;;;;;;;;;4987847;28;20061;-61
2023/06/12 07:09:54;;;;;;;11.52;6.03;;;;;;;;;;4985431;28;20061;-62
2023/06/12 07:12:21;;;;;;;10.30;5.82;;;;;;;;;;4984661;28;20065;-62
2023/06/12 07:14:47;;;;;;;11.05;5.60;;;;;;;;;;4994156;28;20042;-60
2023/06/12 07:17:14;;;;;;;10.50;5.72;;;;;;;;;;4989596;28;20069;-62
2023/06/12 07:19:40;;;;;;;10.10;5.95;;;;;;;;;;5003453;28;20041;-62
2023/06/12 07:22:07;;;;;;;11.70;5.93;;;;;;;;;;4988835;28;20038;-60
2023/06/12 07:24:34;;;;;;;11.60;5.38;;;;;;;;;;4987047;28;20038;-62
2023/06/12 07:27:00;;;;;;;13.35;6.03;;;;;;;;;;4974788;28;20550;-61
2023/06/12 07:29:27;;;;;;;12.20;5.45;;;;;;;;;;4986922;28;20042;-61
2023/06/12 07:31:54;;;;;;;11.75;5.55;;;;;;;;;;4992331;28;20046;-61
2023/06/12 07:34:20;;;;;;;10.68;6.07;;;;;;;;;;4989947;28;20865;-62
2023/06/12 07:36:47;;;;;;;10.65;5.95;;;;;;;;;;4990211;28;20082;-61
2023/06/12 07:39:14;;;;;;;9.70;5.18;;;;;;;;;;4989226;28;20031;-61
2023/06/12 07:41:42;;;;;;;8.38;4.82;;;;;;;;;;4974488;28;20077;-62
2023/06/12 07:44:12;;;;;;;9.25;5.65;;;;;;;;;;4987154;28;20081;-61
2023/06/12 07:46:39;;;;;;;11.20;5.57;;;;;;;;;;4986955;28;20065;-62
2023/06/12 07:49:05;;;;;;;9.20;5.45;;;;;;;;;;4990597;28;20121;-61
2023/06/12 07:51:32;;;;;;;11.00;5.78;;;;;;;;;;4980669;28;20042;-61
2023/06/12 07:54:18;;;;;;;10.52;6.20;;;;;;;;;;5000013;28;20042;-61
2023/06/12 07:56:45;;;;;;;11.57;6.25;;;;;;;;;;4988343;28;20053;-61
2023/06/12 07:59:12;;;;;;;9.32;5.95;;;;;;;;;;4982014;28;20038;-61
2023/06/12 08:01:39;;;;;;;10.45;6.28;;;;;;;;;;4987405;28;20038;-60
2023/06/12 08:04:11;;;;;;;11.63;5.88;;;;;;;;;;4987016;28;20042;-61
2023/06/12 08:06:38;;;;;;;10.07;5.97;;;;;;;;;;4986668;28;20048;-62
2023/06/12 08:09:06;;;;;;;10.35;6.13;;;;;;;;;;4988036;28;20063;-59
2023/06/12 08:11:34;;;;;;;10.38;6.00;;;;;;;;;;4974766;28;20054;-60
2023/06/12 08:14:00;;;;;;;9.27;5.82;;;;;;;;;;4987407;28;20081;-60
2023/06/12 08:16:30;;;;;;;9.93;5.72;;;;;;;;;;4979352;28;20129;-61
2023/06/12 08:18:56;;;;;;;10.05;5.95;;;;;;;;;;4983657;28;20441;-61
2023/06/12 08:21:25;;;;;;;9.13;5.70;;;;;;;;;;4983405;28;20030;-63
2023/06/12 08:23:51;;;;;;;10.30;5.80;;;;;;;;;;4979150;28;20111;-63
2023/06/12 08:26:18;;;;;;;10.20;5.90;;;;;;;;;;4977371;28;20042;-60
2023/06/12 08:28:49;;;;;;;11.25;6.07;;;;;;;;;;4985123;28;20033;-59
2023/06/12 08:31:16;;;;;;;10.73;5.57;;;;;;;;;;4983642;28;20039;-60
2023/06/12 08:33:43;;;;;;;10.15;5.85;;;;;;;;;;4989175;28;20038;-60
2023/06/12 08:36:10;;;;;;;9.68;5.90;;;;;;;;;;4988472;28;20046;-62
2023/06/12 08:38:37;;;;;;;10.73;5.97;;;;;;;;;;4986945;28;20030;-62
2023/06/12 08:41:04;;;;;;;10.10;5.88;;;;;;;;;;4982574;28;20042;-61
2023/06/12 08:43:31;;;;;;;11.48;5.88;;;;;;;;;;4982018;28;20050;-61
2023/06/12 08:45:59;;;;;;;10.52;5.97;;;;;;;;;;4987411;28;20031;-63
2023/06/12 08:48:28;;;;;;;10.85;5.78;;;;;;;;;;4984169;28;20038;-63
2023/06/12 08:50:55;;;;;;;11.50;5.43;;;;;;;;;;4986116;28;21688;-64
2023/06/12 08:53:25;;;;;;;9.88;5.93;;;;;;;;;;4984247;28;20129;-61
2023/06/12 08:55:52;;;;;;;9.45;5.97;;;;;;;;;;4966427;28;20042;-61
2023/06/12 08:58:18;;;;;;;11.18;5.65;;;;;;;;;;4984629;28;20065;-63
2023/06/12 09:00:45;;;;;;;9.25;5.40;;;;;;;;;;4984675;28;20121;-61
2023/06/12 09:03:12;;;;;;;8.95;5.45;;;;;;;;;;4981337;28;20034;-61
2023/06/12 09:05:39;;;;;;;8.50;5.32;;;;;;;;;;4972813;28;20097;-62
2023/06/12 09:08:06;;;;;;;10.48;6.03;;;;;;;;;;4971525;28;20030;-60
2023/06/12 09:10:34;;;;;;;9.00;5.15;;;;;;;;;;4988177;28;20056;-61
2023/06/12 09:13:02;;;;;;;12.23;5.82;;;;;;;;;;4984528;28;20074;-64
2023/06/12 09:15:29;;;;;;;9.30;5.43;;;;;;;;;;4983697;28;20030;-64
2023/06/12 09:17:56;;;;;;;9.52;6.05;;;;;;;;;;4991791;28;20035;-60
2023/06/12 09:20:26;;;;;;;8.77;5.60;;;;;;;;;;4986124;28;20057;-65
2023/06/12 09:22:52;;;;;;;10.82;6.03;;;;;;;;;;4973172;28;20037;-62
2023/06/12 09:25:20;;;;;;;13.15;5.72;;;;;;;;;;4986895;28;20133;-61
2023/06/12 09:27:47;;;;;;;9.70;5.32;;;;;;;;;;4984906;28;20054;-61
2023/06/12 09:30:15;;;;;;;10.57;5.30;;;;;;;;;;4987828;28;20047;-62
2023/06/12 09:32:43;;;;;;;11.63;6.05;;;;;;;;;;4984460;28;20042;-62
2023/06/12 09:35:13;;;;;;;9.65;5.78;;;;;;;;;;4989705;28;20596;-61
2023/06/12 09:37:42;;;;;;;8.88;5.53;;;;;;;;;;4988034;28;20052;-63
2023/06/12 09:40:10;;;;;;;13.07;5.90;;;;;;;;;;4991872;28;20158;-61
2023/06/12 09:42:38;;;;;;;10.70;6.20;;;;;;;;;;4989758;28;20173;-64
2023/06/12 09:45:11;;;;;;;12.77;6.35;;;;;;;;;;4988618;28;20046;-65
2023/06/12 09:47:53;;;;;;;11.05;6.35;;;;;;;;;;4989095;28;20067;-61
2023/06/12 09:50:23;;;;;;;13.93;6.47;;;;;;;;;;4974309;28;20050;-63
2023/06/12 09:52:51;;;;;;;12.50;6.00;;;;;;;;;;4961306;28;20402;-60
2023/06/12 09:55:18;;;;;;;12.05;6.50;;;;;;;;;;4985789;28;20094;-59
2023/06/12 09:57:52;;;;;;;9.50;5.80;;;;;;;;;;4982929;28;20042;-59
2023/06/12 10:00:21;;;;;;;10.68;6.10;;;;;;;;;;4985433;28;20046;-62
2023/06/12 10:02:55;;;;;;;11.63;6.07;;;;;;;;;;4988156;28;20046;-62
2023/06/12 10:05:26;;;;;;;14.63;6.50;;;;;;;;;;4987212;28;20494;-60
2023/06/12 10:07:54;;;;;;;10.23;6.50;;;;;;;;;;4964615;28;20043;-60
2023/06/12 10:10:25;;;;;;;11.00;5.95;;;;;;;;;;4972855;28;20470;-60
2023/06/12 10:12:52;;;;;;;15.52;6.68;;;;;;;;;;4979838;28;20043;-63
2023/06/12 10:15:20;;;;;;;11.88;6.13;;;;;;;;;;4981035;28;20038;-60
2023/06/12 10:17:47;;;;;;;12.57;6.80;;;;;;;;;;4971088;28;20043;-60
2023/06/12 10:20:33;;;;;;;11.70;6.35;;;;;;;;;;4979929;28;20549;-62
2023/06/12 10:23:00;;;;;;;13.88;6.32;;;;;;;;;;4980137;28;20998;-60
2023/06/12 10:25:29;;;;;;;8.82;5.80;;;;;;;;;;4982084;28;20141;-59
2023/06/12 10:27:56;;;;;;;15.90;7.35;;;;;;;;;;4982575;28;20092;-59
2023/06/12 10:30:22;;;;;;;10.20;5.90;;;;;;;;;;4985353;28;20140;-63
2023/06/12 10:32:49;;;;;;;10.32;5.50;;;;;;;;;;4987356;28;20046;-60
2023/06/12 10:35:30;;;;;;;10.38;5.95;;;;;;;;;;4986461;28;20062;-62
2023/06/12 10:37:56;;;;;;;12.32;6.32;;;;;;;;;;4985191;28;20046;-60
2023/06/12 10:40:24;;;;;;;9.50;6.07;;;;;;;;;;4977826;28;20031;-60
2023/06/12 10:43:00;;;;;;;11.27;6.53;;;;;;;;;;4979150;28;20049;-63
2023/06/12 10:45:29;;;;;;;10.52;6.15;;;;;;;;;;4977484;28;20049;-63
2023/06/12 10:50:31;;;;;;;11.40;6.55;;;;;;;;;;4977370;28;20406;-61
2023/06/12 10:53:00;;;;;;;12.68;6.72;;;;;;;;;;4977410;28;20345;-63
2023/06/12 10:55:30;;;;;;;10.50;6.38;;;;;;;;;;4980709;28;20176;-62
2023/06/12 10:57:58;;;;;;;11.93;6.85;;;;;;;;;;4977166;28;20042;-62
2023/06/12 11:00:32;;;;;;;12.65;6.25;;;;;;;;;;4978525;28;20125;-61
2023/06/12 11:03:03;;;;;;;12.80;6.80;;;;;;;;;;4982235;28;20058;-61
2023/06/12 11:05:31;;;;;;;14.07;7.07;;;;;;;;;;4991878;28;20058;-62
2023/06/12 11:07:59;;;;;;;11.00;6.78;;;;;;;;;;4976970;28;20034;-63
2023/06/12 11:10:26;;;;;;;10.48;6.90;;;;;;;;;;4980107;28;20035;-61
2023/06/12 11:12:53;;;;;;;11.73;6.68;;;;;;;;;;4981293;28;20094;-62
2023/06/12 11:15:21;;;;;;;12.18;6.80;;;;;;;;;;4984411;28;20093;-63
2023/06/12 11:17:47;;;;;;;14.43;6.55;;;;;;;;;;4981731;28;20348;-63
2023/06/12 11:20:16;;;;;;;14.95;7.13;;;;;;;;;;4988545;28;20124;-62
2023/06/12 11:22:43;;;;;;;13.48;6.88;;;;;;;;;;4980887;28;20042;-61
2023/06/12 11:25:09;;;;;;;11.35;6.50;;;;;;;;;;4979132;28;20050;-61
2023/06/12 11:27:37;;;;;;;14.23;6.70;;;;;;;;;;4978756;28;21054;-59
2023/06/12 11:30:15;;;;;;;11.65;6.82;;;;;;;;;;4979286;28;20041;-61
2023/06/12 11:32:43;;;;;;;13.35;6.90;;;;;;;;;;4966460;28;20039;-59
2023/06/12 11:35:10;;;;;;;11.75;6.88;;;;;;;;;;4977514;28;20046;-59
2023/06/12 11:37:40;;;;;;;11.88;7.22;;;;;;;;;;4976929;28;20052;-62
2023/06/12 11:40:09;;;;;;;12.25;6.88;;;;;;;;;;4979539;28;20611;-62
2023/06/12 11:42:37;;;;;;;13.20;7.15;;;;;;;;;;4976963;28;20097;-60
2023/06/12 11:45:07;;;;;;;12.75;7.13;;;;;;;;;;4978226;28;20049;-62
2023/06/12 11:47:37;;;;;;;12.35;6.90;;;;;;;;;;4976873;28;20475;-60
2023/06/12 11:50:07;;;;;;;14.60;7.13;;;;;;;;;;4979677;28;20046;-62
2023/06/12 11:52:35;;;;;;;12.02;7.18;;;;;;;;;;4977987;28;20043;-59
2023/06/12 11:55:05;;;;;;;12.98;7.47;;;;;;;;;;4975825;28;20074;-60
2023/06/12 11:57:32;;;;;;;11.10;6.88;;;;;;;;;;4975044;28;20136;-59
2023/06/12 11:59:59;;;;;;;12.85;7.20;;;;;;;;;;4977694;28;20097;-61
2023/06/12 12:02:30;;;;;;;12.32;6.60;;;;;;;;;;4985070;28;20376;-62
2023/06/12 12:04:58;;;;;;;14.82;7.32;;;;;;;;;;4980274;28;20101;-61
2023/06/12 12:07:25;;;;;;;12.55;6.95;;;;;;;;;;4975694;28;20038;-61
2023/06/12 12:10:03;;;;;;;12.60;6.97;;;;;;;;;;4977176;28;20070;-62
2023/06/12 12:12:38;;;;;;;12.93;7.22;;;;;;;;;;4979045;28;20049;-60
2023/06/12 12:15:06;;;;;;;14.95;7.93;;;;;;;;;;4983281;28;20038;-62
2023/06/12 12:17:33;;;;;;;14.07;8.02;;;;;;;;;;4986113;28;20097;-62
2023/06/12 12:20:07;;;;;;;16.98;9.77;;;;;;;;;;4979661;28;20053;-59
2023/06/12 12:22:41;;;;;;;13.30;8.15;;;;;;;;;;4983238;28;20120;-58
2023/06/12 12:25:09;;;;;;;15.48;7.25;;;;;;;;;;4977256;28;20043;-57
2023/06/12 12:27:38;;;;;;;15.57;8.35;;;;;;;;;;4981416;28;20061;-59
2023/06/12 12:30:04;;;;;;;13.07;7.88;;;;;;;;;;4983003;28;20057;-58
2023/06/12 12:32:31;;;;;;;12.75;7.38;;;;;;;;;;4980481;28;20083;-59
2023/06/12 12:34:58;;;;;;;15.93;8.18;;;;;;;;;;4981377;28;20046;-61
2023/06/12 12:37:25;;;;;;;15.10;7.25;;;;;;;;;;4978747;28;20054;-58
2023/06/12 12:39:51;;;;;;;15.63;8.38;;;;;;;;;;4979042;28;20043;-58
2023/06/12 12:42:18;;;;;;;13.60;7.65;;;;;;;;;;4978795;28;20040;-58
2023/06/12 12:44:45;;;;;;;14.02;7.65;;;;;;;;;;4966813;28;20582;-58
2023/06/12 12:47:11;;;;;;;19.88;8.20;;;;;;;;;;4979216;28;20668;-57
2023/06/12 12:49:38;;;;;;;14.25;7.88;;;;;;;;;;4980210;28;20429;-57
2023/06/12 12:52:05;;;;;;;13.85;7.80;;;;;;;;;;4980118;28;20073;-59
2023/06/12 12:54:31;;;;;;;18.23;8.98;;;;;;;;;;4969217;28;20042;-57
2023/06/12 12:56:58;;;;;;;14.52;7.45;;;;;;;;;;4975769;28;20093;-57
2023/06/12 12:59:25;;;;;;;14.63;7.90;;;;;;;;;;4978220;28;20879;-57
2023/06/12 13:01:52;;;;;;;16.15;8.25;;;;;;;;;;4978611;28;20038;-58
2023/06/12 13:04:18;;;;;;;19.42;8.38;;;;;;;;;;4979609;28;20159;-59
2023/06/12 13:06:46;;;;;;;18.00;8.15;;;;;;;;;;4976276;28;20068;-59
2023/06/12 13:09:13;;;;;;;18.63;8.80;;;;;;;;;;4980520;28;20517;-63
2023/06/12 13:11:39;;;;;;;17.67;8.75;;;;;;;;;;4981569;28;20035;-60
2023/06/12 13:14:06;;;;;;;16.33;8.15;;;;;;;;;;4982690;28;20128;-59
2023/06/12 13:16:33;;;;;;;19.67;8.40;;;;;;;;;;4980484;28;20054;-61
2023/06/12 13:18:59;;;;;;;17.55;8.82;;;;;;;;;;4979226;28;20034;-60
2023/06/12 13:21:26;;;;;;;14.13;8.57;;;;;;;;;;4976958;28;20226;-57
2023/06/12 13:23:52;;;;;;;16.52;8.85;;;;;;;;;;4980858;28;20043;-63
2023/06/12 13:26:19;;;;;;;15.13;9.00;;;;;;;;;;4983169;28;20047;-61
2023/06/12 13:28:47;;;;;;;112.45;15.60;;;;;;;;;;4969874;28;20076;-61
2023/06/12 13:31:13;;;;;;;19.85;8.70;;;;;;;;;;4984109;28;20042;-60
2023/06/12 13:33:40;;;;;;;17.05;8.05;;;;;;;;;;4987090;28;20035;-59
2023/06/12 13:36:08;;;;;;;17.38;8.60;;;;;;;;;;4987971;28;20042;-61
2023/06/12 13:38:35;;;;;;;15.13;8.32;;;;;;;;;;4976868;28;20034;-61
2023/06/12 13:41:02;;;;;;;15.50;9.00;;;;;;;;;;4981583;28;20045;-59
2023/06/12 13:43:29;;;;;;;17.52;8.50;;;;;;;;;;4978955;28;20034;-61
2023/06/12 13:45:57;;;;;;;18.23;8.95;;;;;;;;;;4987262;28;20506;-61
2023/06/12 13:48:24;;;;;;;15.27;8.93;;;;;;;;;;4975028;28;20506;-61
2023/06/12 13:50:50;;;;;;;14.80;8.25;;;;;;;;;;4986080;28;20085;-61
2023/06/12 13:53:18;;;;;;;16.45;9.10;;;;;;;;;;4987549;28;20053;-64
2023/06/12 13:55:45;;;;;;;15.57;8.93;;;;;;;;;;4982107;28;20045;-60
2023/06/12 13:58:12;;;;;;;18.40;9.48;;;;;;;;;;4985015;28;20042;-60
2023/06/12 14:00:38;;;;;;;17.02;9.77;;;;;;;;;;4981222;28;20145;-62
2023/06/12 14:03:05;;;;;;;17.98;10.40;;;;;;;;;;4992147;28;20826;-60
2023/06/12 14:05:32;;;;;;;16.95;9.82;;;;;;;;;;4982015;28;20053;-63
2023/06/12 14:07:58;;;;;;;20.50;10.52;;;;;;;;;;4987684;28;20174;-62
2023/06/12 14:10:25;;;;;;;18.45;10.10;;;;;;;;;;4984297;28;20046;-60
2023/06/12 14:12:53;;;;;;;21.92;10.10;;;;;;;;;;4988101;28;20049;-62
2023/06/12 14:15:19;;;;;;;21.10;10.48;;;;;;;;;;4990978;28;20049;-60
2023/06/12 14:17:47;;;;;;;19.30;10.20;;;;;;;;;;4985335;28;20525;-59
2023/06/12 14:20:14;;;;;;;20.35;9.45;;;;;;;;;;4985833;28;20066;-61
2023/06/12 14:22:40;;;;;;;17.90;10.65;;;;;;;;;;4986480;28;20050;-60
2023/06/12 14:25:27;;;;;;;18.92;11.07;;;;;;;;;;4975224;28;20054;-61
2023/06/12 14:27:54;;;;;;;20.30;10.85;;;;;;;;;;4987728;28;20557;-63
2023/06/12 14:30:21;;;;;;;18.92;11.38;;;;;;;;;;4984750;28;20610;-62
2023/06/12 14:32:47;;;;;;;17.23;10.98;;;;;;;;;;4984721;28;20039;-60
2023/06/12 14:35:16;;;;;;;18.60;10.73;;;;;;;;;;4976628;28;20078;-63
2023/06/12 14:37:43;;;;;;;18.20;10.57;;;;;;;;;;4981685;28;20112;-62